createdAt,value
2022-12-08T00:04:26.009Z,89.50
2022-12-08T00:19:29.836Z,89.05
2022-12-08T00:34:33.382Z,88.27
2022-12-08T00:49:36.717Z,87.26
2022-12-08T01:04:40.166Z,87.07
2022-12-08T01:19:43.498Z,87.62
2022-12-08T01:34:46.840Z,88.41
2022-12-08T01:49:50.131Z,89.01
2022-12-08T02:04:53.411Z,89.63
2022-12-08T02:20:55.246Z,90.79
2022-12-08T02:36:28.148Z,90.10
2022-12-08T02:51:31.283Z,89.67
2022-12-08T03:06:55.747Z,90.04
2022-12-08T03:22:03.654Z,90.61
2022-12-08T03:37:06.846Z,91.18
2022-12-08T03:52:10.010Z,91.19
2022-12-08T04:07:13.371Z,90.88
2022-12-08T04:22:16.498Z,91.54
2022-12-08T04:37:19.620Z,92.54
2022-12-08T04:52:23.065Z,92.88
2022-12-08T05:07:26.248Z,93.00
2022-12-08T05:22:29.515Z,92.22
2022-12-08T05:37:32.660Z,90.94
2022-12-08T05:52:35.841Z,90.44
2022-12-08T06:07:39.804Z,89.78
2022-12-08T06:22:43.157Z,87.60
2022-12-08T06:37:46.340Z,84.55
2022-12-08T06:53:02.729Z,83.03
2022-12-08T07:08:09.486Z,81.77
2022-12-08T07:23:12.784Z,80.72
2022-12-08T07:38:15.941Z,78.64
2022-12-08T07:53:19.052Z,77.84
2022-12-08T08:08:22.432Z,77.93
2022-12-08T08:23:25.835Z,77.63
2022-12-08T08:38:29.489Z,76.47
2022-12-08T08:53:32.629Z,75.78
2022-12-08T09:08:36.018Z,75.75
2022-12-08T09:23:40.183Z,75.47
2022-12-08T09:38:43.316Z,76.51
2022-12-08T09:53:52.541Z,76.95
2022-12-08T10:09:23.385Z,76.69
2022-12-08T10:24:33.922Z,77.65
2022-12-08T10:39:40.328Z,78.22
2022-12-08T10:54:43.582Z,79.06
2022-12-08T11:09:51.035Z,79.37
2022-12-08T11:25:03.694Z,78.88
2022-12-08T11:40:30.913Z,79.28
2022-12-08T11:55:39.450Z,79.99
2022-12-08T12:10:56.399Z,81.54
2022-12-08T12:26:02.851Z,84.02
2022-12-08T12:41:08.379Z,87.55
2022-12-08T12:56:13.076Z,89.27
2022-12-08T13:11:16.659Z,91.40
2022-12-08T13:26:25.295Z,94.66
2022-12-08T13:41:43.780Z,97.72
2022-12-08T13:57:10.598Z,99.60
2022-12-08T14:12:21.958Z,99.90
2022-12-08T14:27:27.421Z,100.00
2022-12-08T14:42:30.753Z,100.00
2022-12-08T14:57:35.790Z,100.00
2022-12-08T15:12:39.348Z,100.00
2022-12-08T15:27:50.242Z,100.00
2022-12-08T15:42:54.129Z,100.00
2022-12-08T15:58:51.653Z,100.00
2022-12-08T16:13:56.876Z,100.00
2022-12-08T16:29:01.591Z,100.00
2022-12-08T16:44:06.291Z,100.00
2022-12-08T16:59:09.437Z,100.00
2022-12-08T17:14:13.736Z,100.00
2022-12-08T17:29:18.898Z,100.00
2022-12-08T17:44:22.348Z,100.00
2022-12-08T17:59:27.691Z,100.00
2022-12-08T18:14:30.933Z,100.00
2022-12-08T18:29:34.517Z,100.00
2022-12-08T18:44:38.251Z,100.00
2022-12-08T18:59:41.502Z,100.00
2022-12-08T19:14:44.905Z,100.00
2022-12-08T19:29:48.043Z,100.00
2022-12-08T19:44:54.311Z,100.00
2022-12-08T19:59:57.781Z,100.00
2022-12-08T20:15:01.248Z,100.00
2022-12-08T20:30:05.011Z,100.00
2022-12-08T20:45:09.963Z,100.00
2022-12-08T21:00:13.996Z,100.00
2022-12-08T21:15:17.644Z,100.00
2022-12-08T21:30:21.476Z,100.00
2022-12-08T21:45:24.830Z,100.00
2022-12-08T22:00:28.639Z,100.00
2022-12-08T22:15:33.136Z,100.00
2022-12-08T22:30:39.183Z,100.00
2022-12-08T22:45:42.923Z,100.00
2022-12-08T23:00:47.420Z,100.00
2022-12-08T23:15:50.825Z,100.00
2022-12-08T23:30:54.057Z,100.00
2022-12-08T23:45:57.631Z,100.00
